createdAt,value
2018-08-03T00:00:01.872Z,102155.30
2018-08-03T00:00:23.647Z,102152.27
2018-08-03T00:00:45.433Z,102149.63
2018-08-03T00:01:07.224Z,102149.09
2018-08-03T00:01:28.994Z,102149.63
2018-08-03T00:01:50.839Z,102143.82
2018-08-03T00:02:12.656Z,102150.55
2018-08-03T00:02:34.430Z,102147.38
2018-08-03T00:02:56.183Z,102147.38
2018-08-03T00:03:17.953Z,102150.02
2018-08-03T00:03:39.732Z,102146.06
2018-08-03T00:04:01.485Z,102146.06
2018-08-03T00:04:23.223Z,102142.50
2018-08-03T00:04:44.975Z,102145.14
2018-08-03T00:05:06.743Z,102147.38
2018-08-03T00:05:28.519Z,102139.47
2018-08-03T00:05:50.276Z,102141.94
2018-08-03T00:06:12.058Z,102144.74
2018-08-03T00:06:33.811Z,102147.38
2018-08-03T00:06:55.575Z,102141.70
2018-08-03T00:07:17.356Z,102142.11
2018-08-03T00:07:39.124Z,102141.19
2018-08-03T00:08:00.897Z,102142.50
2018-08-03T00:08:22.657Z,102145.14
2018-08-03T00:08:44.440Z,102149.09
2018-08-03T00:09:06.192Z,102143.82
2018-08-03T00:09:27.956Z,102147.38
2018-08-03T00:09:49.719Z,102143.82
2018-08-03T00:10:11.478Z,102143.82
2018-08-03T00:10:33.235Z,102143.82
2018-08-03T00:10:54.988Z,102146.46
2018-08-03T00:11:16.772Z,102144.74
2018-08-03T00:11:38.869Z,102139.86
2018-08-03T00:12:00.625Z,102139.86
2018-08-03T00:12:22.427Z,102143.03
2018-08-03T00:12:44.182Z,102145.53
2018-08-03T00:13:05.946Z,102147.38
2018-08-03T00:13:27.733Z,102143.82
2018-08-03T00:13:49.499Z,102138.94
2018-08-03T00:14:11.272Z,102139.70
2018-08-03T00:14:33.052Z,102143.42
2018-08-03T00:14:54.945Z,102140.27
2018-08-03T00:15:16.712Z,102149.49
2018-08-03T00:15:38.472Z,102148.17
2018-08-03T00:16:00.252Z,102145.53
2018-08-03T00:16:22.040Z,102141.19
2018-08-03T00:16:43.816Z,102144.22
2018-08-03T00:17:05.579Z,102145.53
2018-08-03T00:17:27.361Z,102136.66
2018-08-03T00:17:49.131Z,102139.30
2018-08-03T00:18:11.074Z,102137.98
2018-08-03T00:18:32.898Z,102136.66
2018-08-03T00:18:54.683Z,102139.30
2018-08-03T00:19:16.444Z,102135.74
2018-08-03T00:19:38.407Z,102142.34
2018-08-03T00:20:00.187Z,102137.98
2018-08-03T00:20:21.964Z,102135.91
2018-08-03T00:20:43.905Z,102142.90
2018-08-03T00:21:05.684Z,102131.39
2018-08-03T00:21:27.441Z,102134.02
2018-08-03T00:21:49.204Z,102133.66
2018-08-03T00:22:10.972Z,102135.34
2018-08-03T00:22:32.744Z,102135.74
2018-08-03T00:22:54.506Z,102131.78
2018-08-03T00:23:16.279Z,102132.70
2018-08-03T00:23:38.067Z,102134.42
2018-08-03T00:23:59.997Z,102127.83
2018-08-03T00:24:21.765Z,102131.78
2018-08-03T00:24:43.527Z,102131.78
2018-08-03T00:25:05.288Z,102134.42
2018-08-03T00:25:27.044Z,102126.11
2018-08-03T00:25:48.811Z,102127.83
2018-08-03T00:26:10.568Z,102127.83
2018-08-03T00:26:32.332Z,102129.54
2018-08-03T00:26:54.094Z,102125.98
2018-08-03T00:27:15.852Z,102126.90
2018-08-03T00:27:37.633Z,102128.62
2018-08-03T00:27:59.384Z,102128.22
2018-08-03T00:28:21.134Z,102119.91
2018-08-03T00:28:42.896Z,102122.95
2018-08-03T00:29:04.656Z,102124.66
2018-08-03T00:29:26.435Z,102124.27
2018-08-03T00:29:48.200Z,102128.22
2018-08-03T00:30:09.964Z,102127.42
2018-08-03T00:30:31.710Z,102121.63
2018-08-03T00:30:53.480Z,102122.02
2018-08-03T00:31:15.245Z,102122.55
2018-08-03T00:31:37.007Z,102125.98
2018-08-03T00:31:58.796Z,102124.27
2018-08-03T00:32:20.546Z,102125.98
2018-08-03T00:32:42.331Z,102129.54
2018-08-03T00:33:04.198Z,102124.66
2018-08-03T00:33:25.962Z,102124.27
2018-08-03T00:33:47.747Z,102127.42
2018-08-03T00:34:09.503Z,102118.98
2018-08-03T00:34:31.264Z,102125.98
2018-08-03T00:34:53.018Z,102125.98
2018-08-03T00:35:14.781Z,102125.05
2018-08-03T00:35:36.547Z,102123.34
2018-08-03T00:35:58.303Z,102123.34
2018-08-03T00:36:20.076Z,102125.98
2018-08-03T00:36:41.832Z,102125.98
2018-08-03T00:37:03.577Z,102126.90
2018-08-03T00:37:25.335Z,102125.98
2018-08-03T00:37:47.119Z,102125.98
2018-08-03T00:38:08.899Z,102132.58
2018-08-03T00:38:30.661Z,102125.05
2018-08-03T00:38:52.427Z,102131.25
2018-08-03T00:39:14.192Z,102127.30
2018-08-03T00:39:35.948Z,102127.30
2018-08-03T00:39:57.697Z,102127.70
2018-08-03T00:40:19.463Z,102132.58
2018-08-03T00:40:41.223Z,102129.02
2018-08-03T00:41:02.992Z,102132.05
2018-08-03T00:41:24.760Z,102129.02
2018-08-03T00:41:46.511Z,102133.89
2018-08-03T00:42:08.284Z,102129.02
2018-08-03T00:42:30.051Z,102125.05
2018-08-03T00:42:51.828Z,102122.02
2018-08-03T00:43:13.588Z,102119.78
2018-08-03T00:43:35.338Z,102122.02
2018-08-03T00:43:57.096Z,102129.02
2018-08-03T00:44:18.864Z,102123.73
2018-08-03T00:44:40.624Z,102123.73
2018-08-03T00:45:02.385Z,102120.17
2018-08-03T00:45:24.167Z,102125.45
2018-08-03T00:45:45.933Z,102121.09
2018-08-03T00:46:07.683Z,102125.45
2018-08-03T00:46:29.434Z,102121.89
2018-08-03T00:46:51.201Z,102116.61
2018-08-03T00:47:13.186Z,102117.02
2018-08-03T00:47:35.237Z,102122.81
2018-08-03T00:47:57.013Z,102119.25
2018-08-03T00:48:18.788Z,102120.17
2018-08-03T00:48:40.541Z,102120.57
2018-08-03T00:49:02.415Z,102118.86
2018-08-03T00:49:24.179Z,102119.78
2018-08-03T00:49:45.948Z,102121.49
2018-08-03T00:50:07.712Z,102121.09
2018-08-03T00:50:29.468Z,102115.82
2018-08-03T00:50:51.234Z,102117.94
2018-08-03T00:51:12.978Z,102116.09
2018-08-03T00:51:34.734Z,102117.02
2018-08-03T00:51:56.487Z,102117.94
2018-08-03T00:52:18.244Z,102118.86
2018-08-03T00:52:40.005Z,102117.53
2018-08-03T00:53:01.784Z,102116.61
2018-08-03T00:53:23.547Z,102116.61
2018-08-03T00:53:45.332Z,102120.97
2018-08-03T00:54:07.086Z,102119.25
2018-08-03T00:54:28.839Z,102118.33
2018-08-03T00:54:51.062Z,102117.02
2018-08-03T00:55:12.832Z,102117.94
2018-08-03T00:55:34.591Z,102119.65
2018-08-03T00:55:56.336Z,102117.94
2018-08-03T00:56:18.096Z,102119.25
2018-08-03T00:56:39.856Z,102120.97
2018-08-03T00:57:01.615Z,102111.73
2018-08-03T00:57:23.384Z,102118.86
2018-08-03T00:57:45.137Z,102119.25
2018-08-03T00:58:07.941Z,102116.09
2018-08-03T00:58:29.694Z,102114.38
2018-08-03T00:58:51.450Z,102123.61
2018-08-03T00:59:13.194Z,102119.65
2018-08-03T00:59:34.938Z,102117.02
2018-08-03T00:59:56.714Z,102124.53
2018-08-03T01:00:18.479Z,102121.89
2018-08-03T01:00:40.256Z,102116.48
2018-08-03T01:01:02.054Z,102114.77
2018-08-03T01:01:23.822Z,102115.16
2018-08-03T01:01:45.621Z,102117.80
2018-08-03T01:02:07.399Z,102114.77
2018-08-03T01:02:29.160Z,102117.02
2018-08-03T01:02:50.944Z,102117.02
2018-08-03T01:03:12.725Z,102122.69
2018-08-03T01:03:34.491Z,102115.69
2018-08-03T01:03:56.257Z,102120.97
2018-08-03T01:04:18.041Z,102118.33
2018-08-03T01:04:39.800Z,102120.97
2018-08-03T01:05:01.565Z,102117.41
2018-08-03T01:05:23.323Z,102120.44
2018-08-03T01:05:45.083Z,102113.45
2018-08-03T01:06:06.843Z,102118.72
2018-08-03T01:06:28.624Z,102117.80
2018-08-03T01:06:50.383Z,102116.88
2018-08-03T01:07:12.197Z,102115.16
2018-08-03T01:07:33.942Z,102121.36
2018-08-03T01:07:55.707Z,102115.16
2018-08-03T01:08:17.485Z,102121.36
2018-08-03T01:08:39.227Z,102122.69
2018-08-03T01:09:00.968Z,102124.39
2018-08-03T01:09:22.746Z,102127.96
2018-08-03T01:09:44.513Z,102124.39
2018-08-03T01:10:06.281Z,102120.84
2018-08-03T01:10:28.036Z,102125.32
2018-08-03T01:10:49.787Z,102122.16
2018-08-03T01:11:11.537Z,102126.11
2018-08-03T01:11:33.302Z,102130.59
2018-08-03T01:11:55.076Z,102123.08
2018-08-03T01:12:16.835Z,102129.15
2018-08-03T01:12:38.606Z,102123.47
2018-08-03T01:13:00.352Z,102125.72
2018-08-03T01:13:22.207Z,102128.36
2018-08-03T01:13:43.968Z,102125.32
2018-08-03T01:14:05.740Z,102130.47
2018-08-03T01:14:27.489Z,102125.19
2018-08-03T01:14:49.244Z,102127.83
2018-08-03T01:15:11.013Z,102125.59
2018-08-03T01:15:32.771Z,102127.96
2018-08-03T01:15:54.531Z,102125.72
2018-08-03T01:16:16.280Z,102123.47
2018-08-03T01:16:39.950Z,102122.55
2018-08-03T01:17:01.708Z,102126.64
2018-08-03T01:17:23.463Z,102122.16
2018-08-03T01:17:45.211Z,102123.88
2018-08-03T01:18:06.975Z,102122.55
2018-08-03T01:18:28.775Z,102123.08
2018-08-03T01:18:50.549Z,102121.23
2018-08-03T01:19:13.600Z,102120.84
2018-08-03T01:19:35.355Z,102123.08
2018-08-03T01:19:57.115Z,102119.52
2018-08-03T01:20:18.872Z,102117.28
2018-08-03T01:20:40.637Z,102121.23
2018-08-03T01:21:02.392Z,102119.91
2018-08-03T01:21:24.160Z,102124.80
2018-08-03T01:21:46.004Z,102127.44
2018-08-03T01:22:07.777Z,102118.98
2018-08-03T01:22:29.536Z,102119.39
2018-08-03T01:22:51.299Z,102123.88
2018-08-03T01:23:13.076Z,102119.78
2018-08-03T01:23:34.871Z,102125.19
2018-08-03T01:23:56.629Z,102128.75
2018-08-03T01:24:18.387Z,102122.55
2018-08-03T01:24:40.158Z,102116.75
2018-08-03T01:25:01.932Z,102118.98
2018-08-03T01:25:23.704Z,102119.39
2018-08-03T01:25:45.464Z,102118.98
2018-08-03T01:26:07.212Z,102119.91
2018-08-03T01:26:28.998Z,102114.51
2018-08-03T01:26:50.752Z,102115.03
2018-08-03T01:27:12.505Z,102110.16
2018-08-03T01:27:34.435Z,102110.55
2018-08-03T01:27:56.193Z,102115.03
2018-08-03T01:28:17.962Z,102115.43
2018-08-03T01:28:39.747Z,102110.95
2018-08-03T01:29:01.768Z,102108.30
2018-08-03T01:29:23.518Z,102111.47
2018-08-03T01:29:45.305Z,102110.55
2018-08-03T01:30:07.319Z,102112.39
2018-08-03T01:30:29.084Z,102115.03
2018-08-03T01:30:50.836Z,102110.55
2018-08-03T01:31:12.616Z,102106.98
2018-08-03T01:31:34.377Z,102110.95
2018-08-03T01:31:56.133Z,102108.30
2018-08-03T01:32:17.903Z,102113.19
2018-08-03T01:32:39.673Z,102110.16
2018-08-03T01:33:01.439Z,102110.16
2018-08-03T01:33:23.207Z,102111.47
2018-08-03T01:33:44.980Z,102110.55
2018-08-03T01:34:06.744Z,102106.20
2018-08-03T01:34:28.504Z,102115.83
2018-08-03T01:34:50.254Z,102113.72
2018-08-03T01:35:12.027Z,102115.03
2018-08-03T01:35:34.058Z,102108.84
2018-08-03T01:35:55.803Z,102110.16
2018-08-03T01:36:17.563Z,102110.95
2018-08-03T01:36:39.328Z,102112.80
2018-08-03T01:37:01.107Z,102113.58
2018-08-03T01:37:22.854Z,102114.11
2018-08-03T01:37:44.670Z,102108.84
2018-08-03T01:38:06.402Z,102110.16
2018-08-03T01:38:28.162Z,102108.30
2018-08-03T01:38:49.922Z,102112.27
2018-08-03T01:39:11.676Z,102113.19
2018-08-03T01:39:33.432Z,102116.75
2018-08-03T01:39:55.194Z,102106.98
2018-08-03T01:40:16.964Z,102112.27
2018-08-03T01:40:38.765Z,102112.27
2018-08-03T01:41:00.540Z,102111.34
2018-08-03T01:41:22.381Z,102111.34
2018-08-03T01:41:44.110Z,102113.19
2018-08-03T01:42:05.863Z,102110.42
2018-08-03T01:42:27.631Z,102108.30
2018-08-03T01:42:49.399Z,102110.42
2018-08-03T01:43:11.147Z,102108.30
2018-08-03T01:43:32.912Z,102112.80
2018-08-03T01:43:54.697Z,102110.55
2018-08-03T01:44:16.447Z,102105.27
2018-08-03T01:44:38.204Z,102113.58
2018-08-03T01:44:59.972Z,102106.46
2018-08-03T01:45:21.726Z,102104.75
2018-08-03T01:45:43.491Z,102106.98
2018-08-03T01:46:05.256Z,102108.70
2018-08-03T01:46:27.008Z,102109.10
2018-08-03T01:46:48.772Z,102110.95
2018-08-03T01:47:10.526Z,102104.75
2018-08-03T01:47:32.292Z,102111.87
2018-08-03T01:47:54.047Z,102104.75
2018-08-03T01:48:15.806Z,102106.06
2018-08-03T01:48:37.567Z,102107.78
2018-08-03T01:48:59.353Z,102109.10
2018-08-03T01:49:21.120Z,102104.75
2018-08-03T01:49:42.868Z,102104.62
2018-08-03T01:50:04.626Z,102106.06
2018-08-03T01:50:26.447Z,102104.75
2018-08-03T01:50:48.198Z,102103.83
2018-08-03T01:51:10.176Z,102104.75
2018-08-03T01:51:31.939Z,102105.14
2018-08-03T01:51:53.694Z,102105.14
2018-08-03T01:52:15.499Z,102109.50
2018-08-03T01:52:37.252Z,102107.38
2018-08-03T01:52:59.024Z,102101.19
2018-08-03T01:53:20.779Z,102102.90
2018-08-03T01:53:42.797Z,102105.14
2018-08-03T01:54:04.583Z,102104.75
2018-08-03T01:54:26.347Z,102105.54
2018-08-03T01:54:48.105Z,102101.58
2018-08-03T01:55:09.869Z,102105.54
2018-08-03T01:55:31.651Z,102099.73
2018-08-03T01:55:53.408Z,102100.79
2018-08-03T01:56:15.165Z,102101.98
2018-08-03T01:56:36.910Z,102098.02
2018-08-03T01:56:58.684Z,102100.66
2018-08-03T01:57:20.504Z,102102.90
2018-08-03T01:57:42.267Z,102102.11
2018-08-03T01:58:04.045Z,102098.02
2018-08-03T01:58:25.801Z,102100.27
2018-08-03T01:58:47.564Z,102100.66
2018-08-03T01:59:09.355Z,102098.02
2018-08-03T01:59:31.139Z,102095.78
2018-08-03T01:59:52.903Z,102101.19
2018-08-03T02:00:14.664Z,102097.63
2018-08-03T02:00:36.435Z,102098.02
2018-08-03T02:00:58.192Z,102098.95
2018-08-03T02:01:19.936Z,102098.02
2018-08-03T02:01:41.700Z,102093.54
2018-08-03T02:02:03.463Z,102095.25
2018-08-03T02:02:25.214Z,102098.81
2018-08-03T02:02:46.984Z,102098.42
2018-08-03T02:03:08.765Z,102095.78
2018-08-03T02:03:30.548Z,102093.14
2018-08-03T02:03:52.307Z,102094.46
2018-08-03T02:04:14.090Z,102093.14
2018-08-03T02:04:35.851Z,102092.75
2018-08-03T02:04:57.602Z,102093.54
2018-08-03T02:05:19.359Z,102089.05
2018-08-03T02:05:41.108Z,102095.78
2018-08-03T02:06:02.862Z,102085.62
2018-08-03T02:06:24.610Z,102091.03
2018-08-03T02:06:47.571Z,102093.54
2018-08-03T02:07:09.338Z,102091.82
2018-08-03T02:07:31.089Z,102093.54
2018-08-03T02:07:52.851Z,102092.62
2018-08-03T02:08:14.615Z,102089.98
2018-08-03T02:08:36.371Z,102087.47
2018-08-03T02:08:58.132Z,102089.58
2018-08-03T02:09:19.911Z,102089.19
2018-08-03T02:09:41.668Z,102089.19
2018-08-03T02:10:03.415Z,102087.34
2018-08-03T02:10:25.175Z,102087.87
2018-08-03T02:10:46.943Z,102082.46
2018-08-03T02:11:08.711Z,102091.82
2018-08-03T02:11:30.462Z,102087.34
2018-08-03T02:11:52.215Z,102089.05
2018-08-03T02:12:13.971Z,102091.30
2018-08-03T02:12:35.723Z,102091.69
2018-08-03T02:12:57.480Z,102082.98
2018-08-03T02:13:19.951Z,102090.11
2018-08-03T02:13:41.704Z,102086.02
2018-08-03T02:14:03.459Z,102089.58
2018-08-03T02:14:25.344Z,102089.58
2018-08-03T02:14:47.115Z,102085.09
2018-08-03T02:15:08.960Z,102084.17
2018-08-03T02:15:30.718Z,102088.27
2018-08-03T02:15:52.493Z,102092.22
2018-08-03T02:16:14.253Z,102088.27
2018-08-03T02:16:36.115Z,102089.58
2018-08-03T02:16:57.878Z,102092.62
2018-08-03T02:17:19.636Z,102083.78
2018-08-03T02:17:41.403Z,102089.98
2018-08-03T02:18:03.176Z,102089.98
2018-08-03T02:18:24.923Z,102089.58
2018-08-03T02:18:46.679Z,102092.22
2018-08-03T02:19:08.443Z,102095.25
2018-08-03T02:19:30.255Z,102086.41
2018-08-03T02:19:52.011Z,102092.09
2018-08-03T02:20:13.766Z,102095.65
2018-08-03T02:20:35.514Z,102095.65
2018-08-03T02:20:57.272Z,102091.69
2018-08-03T02:21:19.040Z,102094.73
2018-08-03T02:21:40.829Z,102093.02
2018-08-03T02:22:02.607Z,102096.57
2018-08-03T02:22:24.371Z,102096.97
2018-08-03T02:22:46.118Z,102095.65
2018-08-03T02:23:07.873Z,102094.73
2018-08-03T02:23:29.631Z,102096.57
2018-08-03T02:23:51.427Z,102093.41
2018-08-03T02:24:13.192Z,102099.61
2018-08-03T02:24:34.962Z,102095.65
2018-08-03T02:24:56.711Z,102096.97
2018-08-03T02:25:18.465Z,102099.61
2018-08-03T02:25:40.233Z,102099.21
2018-08-03T02:26:01.996Z,102101.84
2018-08-03T02:26:23.759Z,102097.72
2018-08-03T02:26:45.527Z,102096.41
2018-08-03T02:27:07.282Z,102097.72
2018-08-03T02:27:29.026Z,102097.36
2018-08-03T02:27:50.773Z,102100.36
2018-08-03T02:28:12.539Z,102094.73
2018-08-03T02:28:34.283Z,102100.00
2018-08-03T02:28:56.050Z,102094.73
2018-08-03T02:29:17.810Z,102096.41
2018-08-03T02:29:39.597Z,102097.72
2018-08-03T02:30:01.519Z,102094.16
2018-08-03T02:30:23.290Z,102103.39
2018-08-03T02:30:45.051Z,102101.69
2018-08-03T02:31:06.820Z,102095.48
2018-08-03T02:31:28.562Z,102100.36
2018-08-03T02:31:50.330Z,102096.41
2018-08-03T02:32:12.082Z,102103.00
2018-08-03T02:32:33.840Z,102097.72
2018-08-03T02:32:55.612Z,102099.05
2018-08-03T02:33:17.392Z,102101.16
2018-08-03T02:33:39.158Z,102102.64
2018-08-03T02:34:00.915Z,102097.72
2018-08-03T02:34:22.667Z,102100.36
2018-08-03T02:34:44.451Z,102102.64
2018-08-03T02:35:06.248Z,102103.39
2018-08-03T02:35:28.003Z,102102.08
2018-08-03T02:35:49.746Z,102099.84
2018-08-03T02:36:11.495Z,102099.44
2018-08-03T02:36:33.249Z,102098.13
2018-08-03T02:36:55.002Z,102100.36
2018-08-03T02:37:16.754Z,102096.80
2018-08-03T02:37:38.519Z,102104.32
2018-08-03T02:38:00.281Z,102102.64
2018-08-03T02:38:22.024Z,102103.39
2018-08-03T02:38:43.824Z,102095.88
2018-08-03T02:39:05.591Z,102104.32
2018-08-03T02:39:27.420Z,102098.13
2018-08-03T02:39:49.200Z,102105.64
2018-08-03T02:40:10.974Z,102101.16
2018-08-03T02:40:32.734Z,102100.76
2018-08-03T02:40:54.498Z,102096.28
2018-08-03T02:41:16.242Z,102098.52
2018-08-03T02:41:38.294Z,102104.72
2018-08-03T02:42:00.042Z,102105.51
2018-08-03T02:42:21.789Z,102098.91
2018-08-03T02:42:43.555Z,102101.55
2018-08-03T02:43:05.342Z,102100.76
2018-08-03T02:43:27.343Z,102101.55
2018-08-03T02:43:49.098Z,102107.22
2018-08-03T02:44:10.882Z,102108.67
2018-08-03T02:44:32.643Z,102109.99
2018-08-03T02:44:54.411Z,102110.39
2018-08-03T02:45:16.177Z,102111.70
2018-08-03T02:45:37.935Z,102113.81
2018-08-03T02:45:59.707Z,102110.78
2018-08-03T02:46:21.475Z,102114.34
2018-08-03T02:46:43.252Z,102117.38
2018-08-03T02:47:05.024Z,102113.03
2018-08-03T02:47:26.791Z,102113.03
2018-08-03T02:47:48.544Z,102112.11
2018-08-03T02:48:10.310Z,102114.34
2018-08-03T02:48:32.063Z,102118.70
2018-08-03T02:48:53.843Z,102113.95
2018-08-03T02:49:15.610Z,102119.62
2018-08-03T02:49:37.355Z,102117.77
2018-08-03T02:49:59.142Z,102116.06
2018-08-03T02:50:20.892Z,102120.02
2018-08-03T02:50:42.656Z,102120.02
2018-08-03T02:51:04.413Z,102123.45
2018-08-03T02:51:26.159Z,102119.62
2018-08-03T02:51:47.924Z,102121.73
2018-08-03T02:52:09.912Z,102127.53
2018-08-03T02:52:31.671Z,102124.77
2018-08-03T02:52:53.488Z,102120.81
2018-08-03T02:53:15.243Z,102124.89
2018-08-03T02:53:37.004Z,102129.25
2018-08-03T02:53:58.764Z,102133.60
2018-08-03T02:54:20.511Z,102125.30
2018-08-03T02:54:42.265Z,102129.64
2018-08-03T02:55:04.111Z,102127.00
2018-08-03T02:55:25.865Z,102123.45
2018-08-03T02:55:47.635Z,102124.77
2018-08-03T02:56:09.401Z,102123.05
2018-08-03T02:56:31.239Z,102127.41
2018-08-03T02:56:53.001Z,102127.53
2018-08-03T02:57:14.758Z,102125.69
2018-08-03T02:57:36.540Z,102128.33
2018-08-03T02:57:58.300Z,102126.61
2018-08-03T02:58:20.049Z,102126.61
2018-08-03T02:58:41.822Z,102126.08
2018-08-03T02:59:03.576Z,102125.69
2018-08-03T02:59:25.363Z,102131.36
2018-08-03T02:59:47.130Z,102129.12
2018-08-03T03:00:08.906Z,102122.13
2018-08-03T03:00:30.669Z,102133.60
2018-08-03T03:00:52.425Z,102133.60
2018-08-03T03:01:14.170Z,102134.00
2018-08-03T03:01:35.911Z,102131.75
2018-08-03T03:01:57.665Z,102135.31
2018-08-03T03:02:19.423Z,102134.79
2018-08-03T03:02:41.177Z,102134.39
2018-08-03T03:03:02.923Z,102132.15
2018-08-03T03:03:24.678Z,102135.71
2018-08-03T03:03:46.428Z,102131.75
2018-08-03T03:04:08.185Z,102134.92
2018-08-03T03:04:29.990Z,102133.07
2018-08-03T03:04:51.743Z,102133.07
2018-08-03T03:05:13.528Z,102134.00
2018-08-03T03:05:35.284Z,102134.39
2018-08-03T03:05:57.034Z,102136.23
2018-08-03T03:06:18.792Z,102139.67
2018-08-03T03:06:40.554Z,102139.27
2018-08-03T03:07:02.316Z,102138.34
2018-08-03T03:07:24.134Z,102133.07
2018-08-03T03:07:45.886Z,102134.79
2018-08-03T03:08:07.647Z,102137.03
2018-08-03T03:08:29.403Z,102134.79
2018-08-03T03:08:51.168Z,102136.11
2018-08-03T03:09:13.175Z,102134.27
2018-08-03T03:09:34.945Z,102132.55
2018-08-03T03:09:56.702Z,102136.11
2018-08-03T03:10:18.484Z,102140.06
2018-08-03T03:10:40.232Z,102134.27
2018-08-03T03:11:02.059Z,102134.79
2018-08-03T03:11:23.816Z,102134.39
2018-08-03T03:11:45.558Z,102134.27
2018-08-03T03:12:07.310Z,102137.03
2018-08-03T03:12:29.397Z,102134.79
2018-08-03T03:12:51.152Z,102135.19
2018-08-03T03:13:12.912Z,102134.27
2018-08-03T03:13:34.664Z,102134.27
2018-08-03T03:13:56.423Z,102134.27
2018-08-03T03:14:18.200Z,102138.22
2018-08-03T03:14:39.962Z,102136.90
2018-08-03T03:15:01.719Z,102140.98
2018-08-03T03:15:23.506Z,102133.73
2018-08-03T03:15:45.261Z,102135.58
2018-08-03T03:16:07.022Z,102138.22
2018-08-03T03:16:28.766Z,102135.19
2018-08-03T03:16:50.521Z,102133.07
2018-08-03T03:17:12.271Z,102133.34
2018-08-03T03:17:34.028Z,102138.22
2018-08-03T03:17:55.788Z,102132.55
2018-08-03T03:18:17.544Z,102132.94
2018-08-03T03:18:39.313Z,102134.27
2018-08-03T03:19:01.065Z,102135.97
2018-08-03T03:19:22.908Z,102135.19
2018-08-03T03:19:44.710Z,102130.70
2018-08-03T03:20:06.399Z,102132.02
2018-08-03T03:20:28.174Z,102138.74
2018-08-03T03:20:49.918Z,102133.34
2018-08-03T03:21:11.699Z,102132.94
2018-08-03T03:21:33.443Z,102132.41
2018-08-03T03:21:55.202Z,102131.63
2018-08-03T03:22:16.977Z,102137.30
2018-08-03T03:22:38.739Z,102128.86
2018-08-03T03:23:00.483Z,102127.53
2018-08-03T03:23:22.245Z,102132.94
2018-08-03T03:23:43.996Z,102132.02
2018-08-03T03:24:05.760Z,102125.30
2018-08-03T03:24:27.514Z,102132.41
2018-08-03T03:24:49.285Z,102128.45
2018-08-03T03:25:11.058Z,102128.45
2018-08-03T03:25:32.829Z,102128.86
2018-08-03T03:25:54.584Z,102129.78
2018-08-03T03:26:16.344Z,102129.78
2018-08-03T03:26:38.115Z,102126.22
2018-08-03T03:26:59.876Z,102131.09
2018-08-03T03:27:21.690Z,102129.38
2018-08-03T03:27:43.472Z,102126.22
2018-08-03T03:28:05.247Z,102124.89
2018-08-03T03:28:27.013Z,102128.45
2018-08-03T03:28:48.796Z,102128.45
2018-08-03T03:29:10.556Z,102127.14
2018-08-03T03:29:32.311Z,102128.45
2018-08-03T03:29:54.071Z,102126.22
2018-08-03T03:30:15.839Z,102115.66
2018-08-03T03:30:37.624Z,102126.22
2018-08-03T03:30:59.375Z,102122.66
2018-08-03T03:31:21.154Z,102118.30
2018-08-03T03:31:42.908Z,102122.26
2018-08-03T03:32:04.676Z,102116.45
2018-08-03T03:32:26.429Z,102116.59
2018-08-03T03:32:48.185Z,102120.02
2018-08-03T03:33:09.943Z,102114.74
2018-08-03T03:33:31.729Z,102121.34
2018-08-03T03:33:53.480Z,102127.14
2018-08-03T03:34:15.248Z,102121.34
2018-08-03T03:34:37.047Z,102118.30
2018-08-03T03:34:58.799Z,102122.26
2018-08-03T03:35:20.575Z,102122.66
2018-08-03T03:35:42.359Z,102126.22
2018-08-03T03:36:04.110Z,102125.30
2018-08-03T03:36:25.867Z,102127.93
2018-08-03T03:36:47.605Z,102129.25
2018-08-03T03:37:09.362Z,102123.05
2018-08-03T03:37:31.122Z,102127.93
2018-08-03T03:37:52.882Z,102123.05
2018-08-03T03:38:14.710Z,102121.34
2018-08-03T03:38:36.422Z,102129.25
2018-08-03T03:38:58.181Z,102130.56
2018-08-03T03:39:19.926Z,102123.45
2018-08-03T03:39:41.684Z,102130.17
2018-08-03T03:40:03.447Z,102127.01
2018-08-03T03:40:25.196Z,102125.69
2018-08-03T03:40:46.983Z,102128.33
2018-08-03T03:41:08.745Z,102121.73
2018-08-03T03:41:30.512Z,102129.25
2018-08-03T03:41:52.269Z,102127.53
2018-08-03T03:42:14.031Z,102127.93
2018-08-03T03:42:35.798Z,102131.49
2018-08-03T03:42:57.545Z,102124.38
2018-08-03T03:43:19.298Z,102122.66
2018-08-03T03:43:41.054Z,102128.86
2018-08-03T03:44:02.818Z,102127.93
2018-08-03T03:44:24.580Z,102127.01
2018-08-03T03:44:46.340Z,102127.53
2018-08-03T03:45:08.094Z,102126.09
2018-08-03T03:45:29.889Z,102127.01
2018-08-03T03:45:51.676Z,102128.86
2018-08-03T03:46:13.443Z,102127.01
2018-08-03T03:46:35.450Z,102128.33
2018-08-03T03:46:57.199Z,102128.72
2018-08-03T03:47:18.949Z,102127.41
2018-08-03T03:47:40.704Z,102127.93
2018-08-03T03:48:02.522Z,102128.33
2018-08-03T03:48:24.280Z,102124.77
2018-08-03T03:48:46.081Z,102129.64
2018-08-03T03:49:07.844Z,102122.92
2018-08-03T03:49:29.624Z,102132.28
2018-08-03T03:49:51.378Z,102125.69
2018-08-03T03:50:13.140Z,102127.01
2018-08-03T03:50:34.897Z,102127.01
2018-08-03T03:50:56.730Z,102126.48
2018-08-03T03:51:18.443Z,102130.04
2018-08-03T03:51:40.194Z,102124.38
2018-08-03T03:52:01.979Z,102126.48
2018-08-03T03:52:23.743Z,102128.72
2018-08-03T03:52:45.508Z,102130.97
2018-08-03T03:53:07.287Z,102125.69
2018-08-03T03:53:29.057Z,102124.77
2018-08-03T03:53:50.832Z,102128.72
2018-08-03T03:54:12.590Z,102129.12
2018-08-03T03:54:34.352Z,102129.12
2018-08-03T03:54:56.122Z,102127.80
2018-08-03T03:55:17.882Z,102129.12
2018-08-03T03:55:39.637Z,102129.12
2018-08-03T03:56:01.424Z,102128.72
2018-08-03T03:56:23.184Z,102130.04
2018-08-03T03:56:44.939Z,102127.41
2018-08-03T03:57:06.697Z,102125.56
2018-08-03T03:57:28.452Z,102126.48
2018-08-03T03:57:50.210Z,102128.20
2018-08-03T03:58:11.963Z,102129.12
2018-08-03T03:58:33.728Z,102129.12
2018-08-03T03:58:55.507Z,102130.44
2018-08-03T03:59:17.261Z,102130.04
2018-08-03T03:59:39.020Z,102126.48
2018-08-03T04:00:00.850Z,102135.31
2018-08-03T04:00:22.637Z,102134.92
2018-08-03T04:00:44.405Z,102127.80
2018-08-03T04:01:06.186Z,102125.16
2018-08-03T04:01:27.943Z,102129.64
2018-08-03T04:01:49.702Z,102127.80
2018-08-03T04:02:11.452Z,102133.60
2018-08-03T04:02:33.207Z,102126.09
2018-08-03T04:02:54.972Z,102132.67
2018-08-03T04:03:16.720Z,102126.88
2018-08-03T04:03:38.576Z,102130.04
2018-08-03T04:04:00.343Z,102134.00
2018-08-03T04:04:22.106Z,102130.04
2018-08-03T04:04:43.872Z,102130.44
2018-08-03T04:05:05.634Z,102122.92
2018-08-03T04:05:27.395Z,102130.04
2018-08-03T04:05:49.152Z,102126.48
2018-08-03T04:06:10.936Z,102131.36
2018-08-03T04:06:32.682Z,102128.72
2018-08-03T04:06:54.440Z,102134.39
2018-08-03T04:07:16.192Z,102132.16
2018-08-03T04:07:37.961Z,102127.80
2018-08-03T04:07:59.716Z,102128.72
2018-08-03T04:08:21.462Z,102128.20